sensor_id;sensor_type;location;lat;lon;timestamp;temperature;humidity
7502;DHT22;3792;47.740;7.606;2022-07-23T00:01:56;23.40;99.90
7502;DHT22;3792;47.740;7.606;2022-07-23T00:04:23;23.20;99.90
7502;DHT22;3792;47.740;7.606;2022-07-23T00:06:51;23.30;99.90
7502;DHT22;3792;47.740;7.606;2022-07-23T00:09:18;23.20;99.90
7502;DHT22;3792;47.740;7.606;2022-07-23T00:11:45;23.10;99.90
7502;DHT22;3792;47.740;7.606;2022-07-23T00:14:12;23.10;99.90
7502;DHT22;3792;47.740;7.606;2022-07-23T00:16:40;23.10;99.90
7502;DHT22;3792;47.740;7.606;2022-07-23T00:19:08;23.00;99.90
7502;DHT22;3792;47.740;7.606;2022-07-23T00:21:35;22.90;99.90
7502;DHT22;3792;47.740;7.606;2022-07-23T00:24:02;22.80;99.90
7502;DHT22;3792;47.740;7.606;2022-07-23T00:26:29;22.70;99.90
7502;DHT22;3792;47.740;7.606;2022-07-23T00:28:56;22.80;99.90
7502;DHT22;3792;47.740;7.606;2022-07-23T00:31:23;22.80;99.90
7502;DHT22;3792;47.740;7.606;2022-07-23T00:33:52;22.70;99.90
7502;DHT22;3792;47.740;7.606;2022-07-23T00:36:22;22.70;99.90
7502;DHT22;3792;47.740;7.606;2022-07-23T00:38:49;22.60;99.90
7502;DHT22;3792;47.740;7.606;2022-07-23T00:41:16;22.60;99.90
7502;DHT22;3792;47.740;7.606;2022-07-23T00:43:43;22.50;99.90
7502;DHT22;3792;47.740;7.606;2022-07-23T00:46:11;22.40;99.90
7502;DHT22;3792;47.740;7.606;2022-07-23T00:48:38;22.50;99.90
7502;DHT22;3792;47.740;7.606;2022-07-23T00:51:06;22.50;99.90
7502;DHT22;3792;47.740;7.606;2022-07-23T00:53:33;22.60;99.90
7502;DHT22;3792;47.740;7.606;2022-07-23T00:56:01;22.70;99.90
7502;DHT22;3792;47.740;7.606;2022-07-23T00:58:28;22.80;99.90
7502;DHT22;3792;47.740;7.606;2022-07-23T01:00:55;22.80;99.90
7502;DHT22;3792;47.740;7.606;2022-07-23T01:03:22;22.90;99.90
7502;DHT22;3792;47.740;7.606;2022-07-23T01:05:49;22.90;99.90
7502;DHT22;3792;47.740;7.606;2022-07-23T01:08:18;22.80;99.90
7502;DHT22;3792;47.740;7.606;2022-07-23T01:10:46;22.80;99.90
7502;DHT22;3792;47.740;7.606;2022-07-23T01:13:15;22.80;99.90
7502;DHT22;3792;47.740;7.606;2022-07-23T01:15:42;22.80;99.90
7502;DHT22;3792;47.740;7.606;2022-07-23T01:18:09;22.80;99.90
7502;DHT22;3792;47.740;7.606;2022-07-23T01:20:38;22.70;99.90
7502;DHT22;3792;47.740;7.606;2022-07-23T01:23:07;22.60;99.90
7502;DHT22;3792;47.740;7.606;2022-07-23T01:25:34;22.50;99.90
7502;DHT22;3792;47.740;7.606;2022-07-23T01:28:01;22.50;99.90
7502;DHT22;3792;47.740;7.606;2022-07-23T01:30:28;22.50;99.90
7502;DHT22;3792;47.740;7.606;2022-07-23T01:32:55;22.40;99.90
7502;DHT22;3792;47.740;7.606;2022-07-23T01:35:22;22.30;99.90
7502;DHT22;3792;47.740;7.606;2022-07-23T01:37:49;22.30;99.90
7502;DHT22;3792;47.740;7.606;2022-07-23T01:40:17;22.30;99.90
7502;DHT22;3792;47.740;7.606;2022-07-23T01:42:44;22.30;99.90
7502;DHT22;3792;47.740;7.606;2022-07-23T01:45:12;22.30;99.90
7502;DHT22;3792;47.740;7.606;2022-07-23T01:47:39;22.20;99.90
7502;DHT22;3792;47.740;7.606;2022-07-23T01:50:08;22.10;99.90
7502;DHT22;3792;47.740;7.606;2022-07-23T01:52:35;22.10;99.90
7502;DHT22;3792;47.740;7.606;2022-07-23T01:55:03;22.10;99.90
7502;DHT22;3792;47.740;7.606;2022-07-23T01:57:32;22.10;99.90
7502;DHT22;3792;47.740;7.606;2022-07-23T01:59:59;22.10;99.90
7502;DHT22;3792;47.740;7.606;2022-07-23T02:02:26;22.00;99.90
7502;DHT22;3792;47.740;7.606;2022-07-23T02:04:53;21.90;99.90
7502;DHT22;3792;47.740;7.606;2022-07-23T02:07:21;21.90;99.90
7502;DHT22;3792;47.740;7.606;2022-07-23T02:09:48;22.00;99.90
7502;DHT22;3792;47.740;7.606;2022-07-23T02:12:15;22.00;99.90
7502;DHT22;3792;47.740;7.606;2022-07-23T02:14:43;22.00;99.90
7502;DHT22;3792;47.740;7.606;2022-07-23T02:17:10;22.00;99.90
7502;DHT22;3792;47.740;7.606;2022-07-23T02:19:37;21.90;99.90
7502;DHT22;3792;47.740;7.606;2022-07-23T02:22:04;21.90;99.90
7502;DHT22;3792;47.740;7.606;2022-07-23T02:24:31;21.80;99.90
7502;DHT22;3792;47.740;7.606;2022-07-23T02:26:58;21.90;99.90
7502;DHT22;3792;47.740;7.606;2022-07-23T02:29:25;21.90;99.90
7502;DHT22;3792;47.740;7.606;2022-07-23T02:31:54;21.90;99.90
7502;DHT22;3792;47.740;7.606;2022-07-23T02:34:21;21.90;99.90
7502;DHT22;3792;47.740;7.606;2022-07-23T02:36:48;22.00;99.90
7502;DHT22;3792;47.740;7.606;2022-07-23T02:39:15;22.10;99.90
7502;DHT22;3792;47.740;7.606;2022-07-23T02:41:42;22.20;99.90
7502;DHT22;3792;47.740;7.606;2022-07-23T02:44:09;22.30;99.90
7502;DHT22;3792;47.740;7.606;2022-07-23T02:46:36;22.20;99.90
7502;DHT22;3792;47.740;7.606;2022-07-23T02:49:04;22.20;99.90
7502;DHT22;3792;47.740;7.606;2022-07-23T02:51:31;22.20;99.90
7502;DHT22;3792;47.740;7.606;2022-07-23T02:53:58;22.20;99.90
7502;DHT22;3792;47.740;7.606;2022-07-23T02:56:25;22.40;99.90
7502;DHT22;3792;47.740;7.606;2022-07-23T02:58:52;22.50;99.90
7502;DHT22;3792;47.740;7.606;2022-07-23T03:01:19;22.40;99.90
7502;DHT22;3792;47.740;7.606;2022-07-23T03:03:47;22.40;99.90
7502;DHT22;3792;47.740;7.606;2022-07-23T03:06:15;22.50;99.90
7502;DHT22;3792;47.740;7.606;2022-07-23T03:08:42;22.50;99.90
7502;DHT22;3792;47.740;7.606;2022-07-23T03:11:09;22.40;99.90
7502;DHT22;3792;47.740;7.606;2022-07-23T03:13:37;22.30;99.90
7502;DHT22;3792;47.740;7.606;2022-07-23T03:16:05;22.20;99.90
7502;DHT22;3792;47.740;7.606;2022-07-23T03:18:32;22.10;99.90
7502;DHT22;3792;47.740;7.606;2022-07-23T03:20:59;22.00;99.90
7502;DHT22;3792;47.740;7.606;2022-07-23T03:23:28;22.10;99.90
7502;DHT22;3792;47.740;7.606;2022-07-23T03:25:55;22.10;99.90
7502;DHT22;3792;47.740;7.606;2022-07-23T03:28:22;22.00;99.90
7502;DHT22;3792;47.740;7.606;2022-07-23T03:30:49;22.10;99.90
7502;DHT22;3792;47.740;7.606;2022-07-23T03:33:17;22.10;99.90
7502;DHT22;3792;47.740;7.606;2022-07-23T03:35:45;22.00;99.90
7502;DHT22;3792;47.740;7.606;2022-07-23T03:38:13;22.00;99.90
7502;DHT22;3792;47.740;7.606;2022-07-23T03:40:41;21.90;99.90
7502;DHT22;3792;47.740;7.606;2022-07-23T03:43:08;21.80;99.90
7502;DHT22;3792;47.740;7.606;2022-07-23T03:45:36;21.70;99.90
7502;DHT22;3792;47.740;7.606;2022-07-23T03:48:03;21.60;99.90
7502;DHT22;3792;47.740;7.606;2022-07-23T03:50:30;21.40;99.90
7502;DHT22;3792;47.740;7.606;2022-07-23T03:52:57;21.40;99.90
7502;DHT22;3792;47.740;7.606;2022-07-23T03:55:25;21.50;99.90
7502;DHT22;3792;47.740;7.606;2022-07-23T03:57:53;21.50;99.90
7502;DHT22;3792;47.740;7.606;2022-07-23T04:00:20;21.40;99.90
7502;DHT22;3792;47.740;7.606;2022-07-23T04:02:47;21.50;99.90
7502;DHT22;3792;47.740;7.606;2022-07-23T04:05:14;21.60;99.90
7502;DHT22;3792;47.740;7.606;2022-07-23T04:07:41;21.60;99.90
7502;DHT22;3792;47.740;7.606;2022-07-23T04:10:09;21.70;99.90
7502;DHT22;3792;47.740;7.606;2022-07-23T04:12:36;21.70;99.90
7502;DHT22;3792;47.740;7.606;2022-07-23T04:15:07;21.60;99.90
7502;DHT22;3792;47.740;7.606;2022-07-23T04:17:35;21.60;99.90
7502;DHT22;3792;47.740;7.606;2022-07-23T04:20:02;21.70;99.90
7502;DHT22;3792;47.740;7.606;2022-07-23T04:22:29;21.60;99.90
7502;DHT22;3792;47.740;7.606;2022-07-23T04:24:56;21.60;99.90
7502;DHT22;3792;47.740;7.606;2022-07-23T04:27:23;21.60;99.90
7502;DHT22;3792;47.740;7.606;2022-07-23T04:29:54;21.60;99.90
7502;DHT22;3792;47.740;7.606;2022-07-23T04:32:22;21.50;99.90
7502;DHT22;3792;47.740;7.606;2022-07-23T04:34:50;21.50;99.90
7502;DHT22;3792;47.740;7.606;2022-07-23T04:37:17;21.40;99.90
7502;DHT22;3792;47.740;7.606;2022-07-23T04:39:44;21.30;99.90
7502;DHT22;3792;47.740;7.606;2022-07-23T04:42:11;21.30;99.90
7502;DHT22;3792;47.740;7.606;2022-07-23T04:44:38;21.30;99.90
7502;DHT22;3792;47.740;7.606;2022-07-23T04:47:05;21.30;99.90
7502;DHT22;3792;47.740;7.606;2022-07-23T04:49:34;21.30;99.90
7502;DHT22;3792;47.740;7.606;2022-07-23T04:52:01;21.40;99.90
7502;DHT22;3792;47.740;7.606;2022-07-23T04:54:28;21.50;99.90
7502;DHT22;3792;47.740;7.606;2022-07-23T04:56:55;21.50;99.90
7502;DHT22;3792;47.740;7.606;2022-07-23T04:59:22;21.50;99.90
7502;DHT22;3792;47.740;7.606;2022-07-23T05:01:49;21.50;99.90
7502;DHT22;3792;47.740;7.606;2022-07-23T05:04:16;21.60;99.90
7502;DHT22;3792;47.740;7.606;2022-07-23T05:06:45;21.70;99.90
7502;DHT22;3792;47.740;7.606;2022-07-23T05:09:12;21.70;99.90
7502;DHT22;3792;47.740;7.606;2022-07-23T05:11:39;21.60;99.90
7502;DHT22;3792;47.740;7.606;2022-07-23T05:14:06;21.60;99.90
7502;DHT22;3792;47.740;7.606;2022-07-23T05:16:34;21.70;99.90
7502;DHT22;3792;47.740;7.606;2022-07-23T05:19:01;21.70;99.90
7502;DHT22;3792;47.740;7.606;2022-07-23T05:21:28;21.80;99.90
7502;DHT22;3792;47.740;7.606;2022-07-23T05:23:57;21.80;99.90
7502;DHT22;3792;47.740;7.606;2022-07-23T05:26:24;21.80;99.90
7502;DHT22;3792;47.740;7.606;2022-07-23T05:28:51;21.90;99.90
7502;DHT22;3792;47.740;7.606;2022-07-23T05:31:18;21.90;99.90
7502;DHT22;3792;47.740;7.606;2022-07-23T05:33:45;22.00;99.90
7502;DHT22;3792;47.740;7.606;2022-07-23T05:36:12;22.00;99.90
7502;DHT22;3792;47.740;7.606;2022-07-23T05:38:39;22.00;99.90
7502;DHT22;3792;47.740;7.606;2022-07-23T05:41:08;22.10;99.90
7502;DHT22;3792;47.740;7.606;2022-07-23T05:43:35;22.20;99.90
7502;DHT22;3792;47.740;7.606;2022-07-23T05:46:02;22.30;99.90
7502;DHT22;3792;47.740;7.606;2022-07-23T05:48:30;22.40;99.90
7502;DHT22;3792;47.740;7.606;2022-07-23T05:50:57;22.40;99.90
7502;DHT22;3792;47.740;7.606;2022-07-23T05:53:24;22.40;99.90
7502;DHT22;3792;47.740;7.606;2022-07-23T05:55:51;22.40;99.90
7502;DHT22;3792;47.740;7.606;2022-07-23T05:58:20;22.40;99.90
7502;DHT22;3792;47.740;7.606;2022-07-23T06:00:47;22.40;99.90
7502;DHT22;3792;47.740;7.606;2022-07-23T06:03:14;22.50;99.90
7502;DHT22;3792;47.740;7.606;2022-07-23T06:05:41;22.40;99.90
7502;DHT22;3792;47.740;7.606;2022-07-23T06:08:08;22.40;99.90
7502;DHT22;3792;47.740;7.606;2022-07-23T06:10:36;22.40;99.90
7502;DHT22;3792;47.740;7.606;2022-07-23T06:13:03;22.30;99.90
7502;DHT22;3792;47.740;7.606;2022-07-23T06:15:32;22.30;99.90
7502;DHT22;3792;47.740;7.606;2022-07-23T06:17:59;22.40;99.90
7502;DHT22;3792;47.740;7.606;2022-07-23T06:20:26;22.50;99.90
7502;DHT22;3792;47.740;7.606;2022-07-23T06:22:53;22.60;99.90
7502;DHT22;3792;47.740;7.606;2022-07-23T06:25:21;22.60;99.90
7502;DHT22;3792;47.740;7.606;2022-07-23T06:27:48;22.70;99.90
7502;DHT22;3792;47.740;7.606;2022-07-23T06:30:15;22.80;99.90
7502;DHT22;3792;47.740;7.606;2022-07-23T06:32:44;22.80;99.90
7502;DHT22;3792;47.740;7.606;2022-07-23T06:35:11;22.90;99.90
7502;DHT22;3792;47.740;7.606;2022-07-23T06:37:38;22.90;99.90
7502;DHT22;3792;47.740;7.606;2022-07-23T06:40:06;22.80;99.90
7502;DHT22;3792;47.740;7.606;2022-07-23T06:42:33;22.90;99.90
7502;DHT22;3792;47.740;7.606;2022-07-23T06:45:02;23.10;99.90
7502;DHT22;3792;47.740;7.606;2022-07-23T06:47:29;23.30;99.90
7502;DHT22;3792;47.740;7.606;2022-07-23T06:49:58;23.40;99.90
7502;DHT22;3792;47.740;7.606;2022-07-23T06:52:25;23.40;99.90
7502;DHT22;3792;47.740;7.606;2022-07-23T06:54:52;23.50;99.90
7502;DHT22;3792;47.740;7.606;2022-07-23T06:57:20;23.60;99.90
7502;DHT22;3792;47.740;7.606;2022-07-23T06:59:47;23.90;99.90
7502;DHT22;3792;47.740;7.606;2022-07-23T07:02:14;23.90;99.90
7502;DHT22;3792;47.740;7.606;2022-07-23T07:04:41;23.90;99.90
7502;DHT22;3792;47.740;7.606;2022-07-23T07:07:09;23.80;99.90
7502;DHT22;3792;47.740;7.606;2022-07-23T07:09:37;23.80;99.90
7502;DHT22;3792;47.740;7.606;2022-07-23T07:12:05;23.70;99.90
7502;DHT22;3792;47.740;7.606;2022-07-23T07:14:32;23.60;99.90
7502;DHT22;3792;47.740;7.606;2022-07-23T07:16:59;23.40;99.90
7502;DHT22;3792;47.740;7.606;2022-07-23T07:19:26;23.40;99.90
7502;DHT22;3792;47.740;7.606;2022-07-23T07:21:53;23.40;99.90
7502;DHT22;3792;47.740;7.606;2022-07-23T07:24:21;23.40;99.90
7502;DHT22;3792;47.740;7.606;2022-07-23T07:26:50;23.30;99.90
7502;DHT22;3792;47.740;7.606;2022-07-23T07:29:17;23.30;99.90
7502;DHT22;3792;47.740;7.606;2022-07-23T07:31:44;23.40;99.90
7502;DHT22;3792;47.740;7.606;2022-07-23T07:34:11;23.40;99.90
7502;DHT22;3792;47.740;7.606;2022-07-23T07:36:38;23.40;99.90
7502;DHT22;3792;47.740;7.606;2022-07-23T07:39:06;23.30;99.90
7502;DHT22;3792;47.740;7.606;2022-07-23T07:41:37;23.40;99.90
7502;DHT22;3792;47.740;7.606;2022-07-23T07:44:04;23.30;99.90
7502;DHT22;3792;47.740;7.606;2022-07-23T07:46:31;23.20;99.90
7502;DHT22;3792;47.740;7.606;2022-07-23T07:48:58;23.20;99.90
7502;DHT22;3792;47.740;7.606;2022-07-23T07:51:26;23.10;99.90
7502;DHT22;3792;47.740;7.606;2022-07-23T07:53:53;23.10;99.90
7502;DHT22;3792;47.740;7.606;2022-07-23T07:56:20;23.20;99.90
7502;DHT22;3792;47.740;7.606;2022-07-23T07:58:48;23.30;99.90
7502;DHT22;3792;47.740;7.606;2022-07-23T08:01:15;23.30;99.90
7502;DHT22;3792;47.740;7.606;2022-07-23T08:03:44;23.50;99.90
7502;DHT22;3792;47.740;7.606;2022-07-23T08:06:11;23.50;99.90
7502;DHT22;3792;47.740;7.606;2022-07-23T08:08:38;23.50;99.90
7502;DHT22;3792;47.740;7.606;2022-07-23T08:11:06;23.60;99.90
7502;DHT22;3792;47.740;7.606;2022-07-23T08:13:33;23.60;99.90
7502;DHT22;3792;47.740;7.606;2022-07-23T08:16:02;23.60;99.90
7502;DHT22;3792;47.740;7.606;2022-07-23T08:18:29;23.60;99.90
7502;DHT22;3792;47.740;7.606;2022-07-23T08:20:56;23.60;99.90
7502;DHT22;3792;47.740;7.606;2022-07-23T08:23:23;23.70;99.90
7502;DHT22;3792;47.740;7.606;2022-07-23T08:25:50;23.70;99.90
7502;DHT22;3792;47.740;7.606;2022-07-23T08:28:17;23.70;99.90
7502;DHT22;3792;47.740;7.606;2022-07-23T08:30:45;23.80;99.90
7502;DHT22;3792;47.740;7.606;2022-07-23T08:33:15;24.00;99.90
7502;DHT22;3792;47.740;7.606;2022-07-23T08:35:44;24.10;99.90
7502;DHT22;3792;47.740;7.606;2022-07-23T08:38:14;24.20;99.90
7502;DHT22;3792;47.740;7.606;2022-07-23T08:40:43;24.50;99.90
7502;DHT22;3792;47.740;7.606;2022-07-23T08:43:13;24.80;99.90
7502;DHT22;3792;47.740;7.606;2022-07-23T08:45:41;25.00;99.90
7502;DHT22;3792;47.740;7.606;2022-07-23T08:48:12;25.00;99.90
7502;DHT22;3792;47.740;7.606;2022-07-23T08:50:42;24.90;99.90
7502;DHT22;3792;47.740;7.606;2022-07-23T08:53:10;25.10;99.90
7502;DHT22;3792;47.740;7.606;2022-07-23T08:55:37;25.20;99.90
7502;DHT22;3792;47.740;7.606;2022-07-23T08:58:05;25.10;99.90
7502;DHT22;3792;47.740;7.606;2022-07-23T09:00:32;25.20;99.90
7502;DHT22;3792;47.740;7.606;2022-07-23T09:02:59;25.20;99.90
7502;DHT22;3792;47.740;7.606;2022-07-23T09:05:28;25.00;99.90
7502;DHT22;3792;47.740;7.606;2022-07-23T09:08:14;25.00;99.90
7502;DHT22;3792;47.740;7.606;2022-07-23T09:10:46;25.20;99.90
7502;DHT22;3792;47.740;7.606;2022-07-23T09:13:34;25.30;99.90
7502;DHT22;3792;47.740;7.606;2022-07-23T09:16:05;25.40;99.90
7502;DHT22;3792;47.740;7.606;2022-07-23T09:18:38;25.50;99.90
7502;DHT22;3792;47.740;7.606;2022-07-23T09:21:22;25.50;99.90
7502;DHT22;3792;47.740;7.606;2022-07-23T09:23:52;25.30;99.90
7502;DHT22;3792;47.740;7.606;2022-07-23T09:26:31;25.40;99.90
7502;DHT22;3792;47.740;7.606;2022-07-23T09:29:02;25.20;99.90
7502;DHT22;3792;47.740;7.606;2022-07-23T09:31:49;25.20;99.90
7502;DHT22;3792;47.740;7.606;2022-07-23T09:34:19;25.40;99.90
7502;DHT22;3792;47.740;7.606;2022-07-23T09:36:48;25.60;99.90
7502;DHT22;3792;47.740;7.606;2022-07-23T09:39:24;25.90;99.90
7502;DHT22;3792;47.740;7.606;2022-07-23T09:41:53;25.90;99.90
7502;DHT22;3792;47.740;7.606;2022-07-23T09:44:21;26.00;99.90
7502;DHT22;3792;47.740;7.606;2022-07-23T09:46:49;26.00;99.90
7502;DHT22;3792;47.740;7.606;2022-07-23T09:49:18;25.90;99.90
7502;DHT22;3792;47.740;7.606;2022-07-23T09:51:50;26.00;99.90
7502;DHT22;3792;47.740;7.606;2022-07-23T09:54:31;26.40;99.90
7502;DHT22;3792;47.740;7.606;2022-07-23T09:57:02;26.40;99.90
7502;DHT22;3792;47.740;7.606;2022-07-23T09:59:34;26.40;99.90
7502;DHT22;3792;47.740;7.606;2022-07-23T10:02:03;26.40;99.90
7502;DHT22;3792;47.740;7.606;2022-07-23T10:04:31;26.30;99.90
7502;DHT22;3792;47.740;7.606;2022-07-23T10:07:02;26.50;99.90
7502;DHT22;3792;47.740;7.606;2022-07-23T10:09:31;26.70;99.90
7502;DHT22;3792;47.740;7.606;2022-07-23T10:12:00;26.70;99.90
7502;DHT22;3792;47.740;7.606;2022-07-23T10:14:42;26.70;99.90
7502;DHT22;3792;47.740;7.606;2022-07-23T10:17:09;26.70;99.90
7502;DHT22;3792;47.740;7.606;2022-07-23T10:19:36;26.70;99.90
7502;DHT22;3792;47.740;7.606;2022-07-23T10:22:09;26.40;99.90
7502;DHT22;3792;47.740;7.606;2022-07-23T10:25:04;26.40;99.90
7502;DHT22;3792;47.740;7.606;2022-07-23T10:28:02;26.50;99.90
7502;DHT22;3792;47.740;7.606;2022-07-23T10:30:39;26.70;99.90
7502;DHT22;3792;47.740;7.606;2022-07-23T10:33:22;26.90;99.90
7502;DHT22;3792;47.740;7.606;2022-07-23T10:35:55;27.20;99.90
7502;DHT22;3792;47.740;7.606;2022-07-23T10:38:30;27.40;99.90
7502;DHT22;3792;47.740;7.606;2022-07-23T10:41:00;27.50;99.90
7502;DHT22;3792;47.740;7.606;2022-07-23T10:43:29;27.50;99.90
7502;DHT22;3792;47.740;7.606;2022-07-23T10:46:23;27.60;99.90
7502;DHT22;3792;47.740;7.606;2022-07-23T10:49:22;27.90;99.90
7502;DHT22;3792;47.740;7.606;2022-07-23T10:52:15;28.30;99.90
7502;DHT22;3792;47.740;7.606;2022-07-23T10:54:46;28.40;99.90
7502;DHT22;3792;47.740;7.606;2022-07-23T10:57:14;28.20;99.90
7502;DHT22;3792;47.740;7.606;2022-07-23T11:02:58;28.20;99.90
7502;DHT22;3792;47.740;7.606;2022-07-23T11:05:40;28.00;99.90
7502;DHT22;3792;47.740;7.606;2022-07-23T11:08:18;27.80;99.90
7502;DHT22;3792;47.740;7.606;2022-07-23T11:10:50;27.60;99.90
7502;DHT22;3792;47.740;7.606;2022-07-23T11:13:47;27.60;99.90
7502;DHT22;3792;47.740;7.606;2022-07-23T11:16:27;27.70;99.90
7502;DHT22;3792;47.740;7.606;2022-07-23T11:19:12;27.80;99.90
7502;DHT22;3792;47.740;7.606;2022-07-23T11:21:52;28.00;99.90
7502;DHT22;3792;47.740;7.606;2022-07-23T11:24:21;28.50;99.90
7502;DHT22;3792;47.740;7.606;2022-07-23T11:26:59;28.60;99.90
7502;DHT22;3792;47.740;7.606;2022-07-23T11:29:45;28.60;99.90
7502;DHT22;3792;47.740;7.606;2022-07-23T11:35:25;29.30;99.90
7502;DHT22;3792;47.740;7.606;2022-07-23T11:37:54;29.50;99.90
7502;DHT22;3792;47.740;7.606;2022-07-23T11:40:24;29.40;99.90
7502;DHT22;3792;47.740;7.606;2022-07-23T11:42:57;29.30;99.90
7502;DHT22;3792;47.740;7.606;2022-07-23T11:45:29;29.50;99.90
7502;DHT22;3792;47.740;7.606;2022-07-23T11:47:59;29.60;99.90
7502;DHT22;3792;47.740;7.606;2022-07-23T11:50:27;29.90;99.90
7502;DHT22;3792;47.740;7.606;2022-07-23T11:52:54;29.90;99.90
7502;DHT22;3792;47.740;7.606;2022-07-23T11:55:22;29.90;99.90
7502;DHT22;3792;47.740;7.606;2022-07-23T11:57:51;29.80;99.90
7502;DHT22;3792;47.740;7.606;2022-07-23T12:00:21;29.90;99.90
7502;DHT22;3792;47.740;7.606;2022-07-23T12:02:50;30.10;99.90
7502;DHT22;3792;47.740;7.606;2022-07-23T12:05:19;30.50;99.90
7502;DHT22;3792;47.740;7.606;2022-07-23T12:07:48;30.50;99.70
7502;DHT22;3792;47.740;7.606;2022-07-23T12:10:18;30.80;99.30
7502;DHT22;3792;47.740;7.606;2022-07-23T12:12:48;30.80;99.70
7502;DHT22;3792;47.740;7.606;2022-07-23T12:15:17;31.00;99.50
7502;DHT22;3792;47.740;7.606;2022-07-23T12:17:47;31.20;99.40
7502;DHT22;3792;47.740;7.606;2022-07-23T12:20:16;31.60;98.30
7502;DHT22;3792;47.740;7.606;2022-07-23T12:22:45;31.60;97.60
7502;DHT22;3792;47.740;7.606;2022-07-23T12:25:14;31.50;97.70
7502;DHT22;3792;47.740;7.606;2022-07-23T12:27:43;31.50;97.90
7502;DHT22;3792;47.740;7.606;2022-07-23T12:30:31;31.80;97.40
7502;DHT22;3792;47.740;7.606;2022-07-23T12:33:01;31.60;96.70
7502;DHT22;3792;47.740;7.606;2022-07-23T12:35:35;31.60;97.10
7502;DHT22;3792;47.740;7.606;2022-07-23T12:38:06;31.90;95.90
7502;DHT22;3792;47.740;7.606;2022-07-23T12:40:35;32.40;95.40
7502;DHT22;3792;47.740;7.606;2022-07-23T12:43:03;32.40;94.10
7502;DHT22;3792;47.740;7.606;2022-07-23T12:45:45;32.50;94.20
7502;DHT22;3792;47.740;7.606;2022-07-23T12:48:23;32.50;94.30
7502;DHT22;3792;47.740;7.606;2022-07-23T12:50:55;32.40;93.70
7502;DHT22;3792;47.740;7.606;2022-07-23T12:53:24;32.00;94.20
7502;DHT22;3792;47.740;7.606;2022-07-23T12:55:59;31.40;94.10
7502;DHT22;3792;47.740;7.606;2022-07-23T12:58:26;31.30;94.50
7502;DHT22;3792;47.740;7.606;2022-07-23T13:01:02;31.40;94.30
7502;DHT22;3792;47.740;7.606;2022-07-23T13:03:34;31.40;94.70
7502;DHT22;3792;47.740;7.606;2022-07-23T13:06:03;31.50;92.90
7502;DHT22;3792;47.740;7.606;2022-07-23T13:08:31;31.20;92.80
7502;DHT22;3792;47.740;7.606;2022-07-23T13:10:59;31.00;93.70
7502;DHT22;3792;47.740;7.606;2022-07-23T13:13:29;31.00;93.70
7502;DHT22;3792;47.740;7.606;2022-07-23T13:15:57;31.00;93.80
7502;DHT22;3792;47.740;7.606;2022-07-23T13:18:25;30.90;94.40
7502;DHT22;3792;47.740;7.606;2022-07-23T13:20:54;30.50;94.80
7502;DHT22;3792;47.740;7.606;2022-07-23T13:23:22;30.40;95.00
7502;DHT22;3792;47.740;7.606;2022-07-23T13:25:49;30.30;95.40
7502;DHT22;3792;47.740;7.606;2022-07-23T13:28:18;30.80;95.90
7502;DHT22;3792;47.740;7.606;2022-07-23T13:30:46;31.00;95.80
7502;DHT22;3792;47.740;7.606;2022-07-23T13:33:15;30.90;95.60
7502;DHT22;3792;47.740;7.606;2022-07-23T13:35:43;30.60;96.40
7502;DHT22;3792;47.740;7.606;2022-07-23T13:38:12;30.40;96.30
7502;DHT22;3792;47.740;7.606;2022-07-23T13:40:41;30.10;96.20
7502;DHT22;3792;47.740;7.606;2022-07-23T13:43:09;29.80;96.90
7502;DHT22;3792;47.740;7.606;2022-07-23T13:45:36;29.60;96.60
7502;DHT22;3792;47.740;7.606;2022-07-23T13:48:05;29.40;96.40
7502;DHT22;3792;47.740;7.606;2022-07-23T13:50:33;29.40;96.60
7502;DHT22;3792;47.740;7.606;2022-07-23T13:53:01;29.30;97.00
7502;DHT22;3792;47.740;7.606;2022-07-23T13:55:30;29.40;96.90
7502;DHT22;3792;47.740;7.606;2022-07-23T13:57:58;29.90;96.60
7502;DHT22;3792;47.740;7.606;2022-07-23T14:00:25;30.70;95.80
7502;DHT22;3792;47.740;7.606;2022-07-23T14:02:53;31.30;94.90
7502;DHT22;3792;47.740;7.606;2022-07-23T14:05:20;31.90;94.30
7502;DHT22;3792;47.740;7.606;2022-07-23T14:07:47;32.20;94.30
7502;DHT22;3792;47.740;7.606;2022-07-23T14:10:15;32.00;93.60
7502;DHT22;3792;47.740;7.606;2022-07-23T14:12:44;31.30;95.00
7502;DHT22;3792;47.740;7.606;2022-07-23T14:15:11;31.00;94.50
7502;DHT22;3792;47.740;7.606;2022-07-23T14:17:40;30.60;95.40
7502;DHT22;3792;47.740;7.606;2022-07-23T14:20:08;30.20;95.90
7502;DHT22;3792;47.740;7.606;2022-07-23T14:22:36;30.10;96.10
7502;DHT22;3792;47.740;7.606;2022-07-23T14:25:04;30.00;96.30
7502;DHT22;3792;47.740;7.606;2022-07-23T14:27:32;30.30;96.00
7502;DHT22;3792;47.740;7.606;2022-07-23T14:30:01;30.60;95.40
7502;DHT22;3792;47.740;7.606;2022-07-23T14:32:29;30.80;94.80
7502;DHT22;3792;47.740;7.606;2022-07-23T14:34:56;30.70;94.30
7502;DHT22;3792;47.740;7.606;2022-07-23T14:37:23;30.60;94.00
7502;DHT22;3792;47.740;7.606;2022-07-23T14:39:51;30.40;94.30
7502;DHT22;3792;47.740;7.606;2022-07-23T14:42:19;30.20;94.20
7502;DHT22;3792;47.740;7.606;2022-07-23T14:44:46;30.10;94.50
7502;DHT22;3792;47.740;7.606;2022-07-23T14:47:14;30.10;94.50
7502;DHT22;3792;47.740;7.606;2022-07-23T14:49:41;30.50;94.60
7502;DHT22;3792;47.740;7.606;2022-07-23T14:52:09;31.00;93.30
7502;DHT22;3792;47.740;7.606;2022-07-23T14:54:36;31.70;93.30
7502;DHT22;3792;47.740;7.606;2022-07-23T14:57:03;32.30;92.90
7502;DHT22;3792;47.740;7.606;2022-07-23T14:59:32;32.70;92.00
7502;DHT22;3792;47.740;7.606;2022-07-23T15:02:00;32.70;91.80
7502;DHT22;3792;47.740;7.606;2022-07-23T15:04:28;32.30;90.70
7502;DHT22;3792;47.740;7.606;2022-07-23T15:06:55;32.10;91.50
7502;DHT22;3792;47.740;7.606;2022-07-23T15:09:22;31.90;90.80
7502;DHT22;3792;47.740;7.606;2022-07-23T15:11:50;31.70;90.80
7502;DHT22;3792;47.740;7.606;2022-07-23T15:14:17;31.80;91.20
7502;DHT22;3792;47.740;7.606;2022-07-23T15:16:44;31.60;91.10
7502;DHT22;3792;47.740;7.606;2022-07-23T15:19:11;31.40;92.40
7502;DHT22;3792;47.740;7.606;2022-07-23T15:21:39;31.00;92.50
7502;DHT22;3792;47.740;7.606;2022-07-23T15:24:07;30.90;92.30
7502;DHT22;3792;47.740;7.606;2022-07-23T15:26:34;31.00;92.70
7502;DHT22;3792;47.740;7.606;2022-07-23T15:29:02;31.10;92.30
7502;DHT22;3792;47.740;7.606;2022-07-23T15:31:32;31.20;91.70
7502;DHT22;3792;47.740;7.606;2022-07-23T15:33:59;31.40;90.80
7502;DHT22;3792;47.740;7.606;2022-07-23T15:36:26;31.40;90.40
7502;DHT22;3792;47.740;7.606;2022-07-23T15:38:55;31.10;92.90
7502;DHT22;3792;47.740;7.606;2022-07-23T15:41:22;30.80;93.80
7502;DHT22;3792;47.740;7.606;2022-07-23T15:43:50;30.70;94.40
7502;DHT22;3792;47.740;7.606;2022-07-23T15:46:17;30.40;94.80
7502;DHT22;3792;47.740;7.606;2022-07-23T15:48:45;30.20;95.20
7502;DHT22;3792;47.740;7.606;2022-07-23T15:51:12;30.40;95.40
7502;DHT22;3792;47.740;7.606;2022-07-23T15:53:39;30.60;94.70
7502;DHT22;3792;47.740;7.606;2022-07-23T15:56:09;30.60;94.50
7502;DHT22;3792;47.740;7.606;2022-07-23T15:58:36;30.40;94.60
7502;DHT22;3792;47.740;7.606;2022-07-23T16:01:04;30.40;95.00
7502;DHT22;3792;47.740;7.606;2022-07-23T16:03:33;30.10;95.20
7502;DHT22;3792;47.740;7.606;2022-07-23T16:06:01;29.80;95.30
7502;DHT22;3792;47.740;7.606;2022-07-23T16:08:28;29.70;95.50
7502;DHT22;3792;47.740;7.606;2022-07-23T16:10:55;29.80;95.70
7502;DHT22;3792;47.740;7.606;2022-07-23T16:13:25;30.10;95.40
7502;DHT22;3792;47.740;7.606;2022-07-23T16:15:53;30.20;95.00
7502;DHT22;3792;47.740;7.606;2022-07-23T16:18:21;30.40;95.00
7502;DHT22;3792;47.740;7.606;2022-07-23T16:20:51;30.70;95.30